createdAt,value
2023-01-18T00:00:10.522Z,-1.10
2023-01-18T00:02:37.820Z,-1.04
2023-01-18T00:05:04.619Z,-1.04
2023-01-18T00:07:31.568Z,-0.98
2023-01-18T00:09:58.224Z,-0.99
2023-01-18T00:12:24.820Z,-0.96
2023-01-18T00:14:51.422Z,-0.91
2023-01-18T00:17:18.012Z,-0.86
2023-01-18T00:19:44.620Z,-0.84
2023-01-18T00:22:11.230Z,-0.83
2023-01-18T00:24:38.226Z,-0.76
2023-01-18T00:27:05.296Z,-0.76
2023-01-18T00:29:32.212Z,-0.72
2023-01-18T00:31:58.859Z,-0.76
2023-01-18T00:34:28.237Z,-0.75
2023-01-18T00:36:54.849Z,-0.72
2023-01-18T00:39:21.576Z,-0.72
2023-01-18T00:42:06.643Z,-0.65
2023-01-18T00:44:33.321Z,-0.60
2023-01-18T00:46:59.949Z,-0.56
2023-01-18T00:49:26.618Z,-0.54
2023-01-18T00:51:53.403Z,-0.48
2023-01-18T00:54:19.986Z,-0.44
2023-01-18T00:56:46.592Z,-0.42
2023-01-18T00:59:13.196Z,-0.41
2023-01-18T01:01:39.969Z,-0.35
2023-01-18T01:04:25.280Z,-0.32
2023-01-18T01:06:51.960Z,-0.27
2023-01-18T01:09:22.210Z,-0.30
2023-01-18T01:12:08.410Z,-0.24
2023-01-18T01:14:56.541Z,-0.18
2023-01-18T01:17:42.065Z,-0.19
2023-01-18T01:20:29.059Z,-0.21
2023-01-18T01:23:14.635Z,-0.22
2023-01-18T01:26:00.229Z,-0.31
2023-01-18T01:28:26.919Z,-0.38
2023-01-18T01:31:00.919Z,-0.41
2023-01-18T01:33:28.865Z,-0.48
2023-01-18T01:36:00.495Z,-0.48
2023-01-18T01:38:28.149Z,-0.51
2023-01-18T01:41:07.920Z,-0.51
2023-01-18T01:43:44.895Z,-0.49
2023-01-18T01:46:24.238Z,-0.42
2023-01-18T01:48:59.324Z,-0.44
2023-01-18T01:51:27.191Z,-0.49
2023-01-18T01:53:54.832Z,-0.54
2023-01-18T01:56:21.990Z,-0.59
2023-01-18T01:58:53.091Z,-0.57
2023-01-18T02:01:19.868Z,-0.62
2023-01-18T02:03:46.596Z,-0.56
2023-01-18T02:06:31.368Z,-0.61
2023-01-18T02:12:06.715Z,-0.67
2023-01-18T02:14:33.487Z,-0.75
2023-01-18T02:17:11.793Z,-0.78
2023-01-18T02:20:02.664Z,-0.88
2023-01-18T02:22:45.223Z,-0.85
2023-01-18T02:25:58.951Z,-0.86
2023-01-18T02:28:37.709Z,-0.83
2023-01-18T02:31:13.622Z,-0.91
2023-01-18T02:34:18.165Z,-0.88
2023-01-18T02:37:29.198Z,-0.89
2023-01-18T02:40:07.459Z,-0.91
2023-01-18T02:42:57.392Z,-0.92
2023-01-18T02:45:51.726Z,-0.89
2023-01-18T02:48:24.166Z,-0.84
2023-01-18T02:50:51.569Z,-0.82
2023-01-18T02:53:18.321Z,-0.73
2023-01-18T02:55:54.077Z,-0.73
2023-01-18T02:58:29.668Z,-0.75
2023-01-18T03:01:03.188Z,-0.78
2023-01-18T03:03:30.196Z,-0.81
2023-01-18T03:06:01.752Z,-0.81
2023-01-18T03:08:51.070Z,-0.75
2023-01-18T03:11:35.912Z,-0.77
2023-01-18T03:14:11.880Z,-0.73
2023-01-18T03:17:18.490Z,-0.69
2023-01-18T03:20:06.307Z,-0.70
2023-01-18T03:23:07.940Z,-0.67
2023-01-18T03:25:39.032Z,-0.64
2023-01-18T03:28:27.883Z,-0.66
2023-01-18T03:31:17.234Z,-0.59
2023-01-18T03:33:48.936Z,-0.61
2023-01-18T03:36:24.295Z,-0.57
2023-01-18T03:39:01.214Z,-0.57
2023-01-18T03:41:32.771Z,-0.58
2023-01-18T03:44:06.777Z,-0.56
2023-01-18T03:46:34.624Z,-0.58
2023-01-18T03:49:01.552Z,-0.55
2023-01-18T03:51:57.208Z,-0.58
2023-01-18T03:54:35.388Z,-0.59
2023-01-18T03:57:13.706Z,-0.54
2023-01-18T03:59:40.874Z,-0.53
2023-01-18T04:02:08.905Z,-0.48
2023-01-18T04:04:35.985Z,-0.48
2023-01-18T04:07:03.196Z,-0.47
2023-01-18T04:09:29.840Z,-0.48
2023-01-18T04:11:56.554Z,-0.52
2023-01-18T04:14:23.184Z,-0.51
2023-01-18T04:16:50.394Z,-0.54
2023-01-18T04:19:17.476Z,-0.51
2023-01-18T04:21:45.001Z,-0.55
2023-01-18T04:24:12.255Z,-0.55
2023-01-18T04:26:39.211Z,-0.57
2023-01-18T04:29:05.890Z,-0.51
2023-01-18T04:31:32.525Z,-0.52
2023-01-18T04:33:59.141Z,-0.57
2023-01-18T04:36:25.859Z,-0.54
2023-01-18T04:38:54.246Z,-0.57
2023-01-18T04:41:21.559Z,-0.60
2023-01-18T04:43:48.310Z,-0.61
2023-01-18T04:46:15.503Z,-0.61
2023-01-18T04:48:42.996Z,-0.63
2023-01-18T04:51:14.248Z,-0.63
2023-01-18T04:53:42.481Z,-0.66
2023-01-18T04:56:09.948Z,-0.65
2023-01-18T04:58:37.196Z,-0.62
2023-01-18T05:01:05.664Z,-0.63
2023-01-18T05:03:38.175Z,-0.62
2023-01-18T05:06:10.361Z,-0.65
2023-01-18T05:08:41.042Z,-0.65
2023-01-18T05:11:13.211Z,-0.67
2023-01-18T05:13:40.512Z,-0.68
2023-01-18T05:16:12.774Z,-0.70
2023-01-18T05:18:39.403Z,-0.70
2023-01-18T05:21:06.838Z,-0.68
2023-01-18T05:23:33.578Z,-0.65
2023-01-18T05:26:00.243Z,-0.63
2023-01-18T05:28:28.108Z,-0.59
2023-01-18T05:30:55.235Z,-0.55
2023-01-18T05:33:23.009Z,-0.49
2023-01-18T05:35:54.301Z,-0.43
2023-01-18T05:38:22.397Z,-0.40
2023-01-18T05:40:52.551Z,-0.40
2023-01-18T05:43:20.695Z,-0.40
2023-01-18T05:45:47.860Z,-0.35
2023-01-18T05:48:14.813Z,-0.30
2023-01-18T05:50:44.886Z,-0.28
2023-01-18T05:53:12.312Z,-0.23
2023-01-18T05:55:38.986Z,-0.19
2023-01-18T05:58:05.957Z,-0.16
2023-01-18T06:00:32.672Z,-0.13
2023-01-18T06:02:59.684Z,-0.14
2023-01-18T06:05:26.728Z,-0.15
2023-01-18T06:07:53.626Z,-0.14
2023-01-18T06:10:20.704Z,-0.12
2023-01-18T06:12:48.135Z,-0.17
2023-01-18T06:15:15.853Z,-0.11
2023-01-18T06:17:45.050Z,-0.07
2023-01-18T06:20:12.802Z,-0.03
2023-01-18T06:22:40.767Z,0.03
2023-01-18T06:25:09.312Z,0.01
2023-01-18T06:27:37.725Z,0.01
2023-01-18T06:30:06.317Z,0.01
2023-01-18T06:32:33.402Z,0.03
2023-01-18T06:35:00.247Z,0.01
2023-01-18T06:37:26.900Z,0.06
2023-01-18T06:39:53.546Z,0.06
2023-01-18T06:42:20.163Z,0.10
2023-01-18T06:44:46.852Z,0.16
2023-01-18T06:47:15.593Z,0.15
2023-01-18T06:49:42.216Z,0.20
2023-01-18T06:52:08.867Z,0.21
2023-01-18T06:54:36.410Z,0.19
2023-01-18T06:57:03.817Z,0.22
2023-01-18T06:59:30.567Z,0.27
2023-01-18T07:01:57.293Z,0.27
2023-01-18T07:04:24.087Z,0.31
2023-01-18T07:06:50.812Z,0.38
2023-01-18T07:09:17.418Z,0.36
2023-01-18T07:11:44.178Z,0.35
2023-01-18T07:14:11.561Z,0.39
2023-01-18T07:16:39.088Z,0.44
2023-01-18T07:19:06.273Z,0.46
2023-01-18T07:21:35.722Z,0.45
2023-01-18T07:24:02.715Z,0.47
2023-01-18T07:26:29.444Z,0.39
2023-01-18T07:28:56.581Z,0.42
2023-01-18T07:31:25.186Z,0.45
2023-01-18T07:33:52.384Z,0.40
2023-01-18T07:36:20.554Z,0.39
2023-01-18T07:38:49.078Z,0.38
2023-01-18T07:41:16.795Z,0.38
2023-01-18T07:43:44.881Z,0.48
2023-01-18T07:46:15.888Z,0.45
2023-01-18T07:48:42.781Z,0.44
2023-01-18T07:51:10.843Z,0.40
2023-01-18T07:53:38.434Z,0.46
2023-01-18T07:56:12.702Z,0.36
2023-01-18T07:58:40.155Z,0.30
2023-01-18T08:01:11.573Z,0.33
2023-01-18T08:03:38.728Z,0.36
2023-01-18T08:06:07.744Z,0.27
2023-01-18T08:08:36.030Z,0.30
2023-01-18T08:11:04.939Z,0.37
2023-01-18T08:13:31.838Z,0.29
2023-01-18T08:16:04.011Z,0.25
2023-01-18T08:18:30.888Z,0.23
2023-01-18T08:20:57.862Z,0.19
2023-01-18T08:23:24.732Z,0.24
2023-01-18T08:25:52.079Z,0.13
2023-01-18T08:28:19.149Z,0.06
2023-01-18T08:30:48.063Z,-0.01
2023-01-18T08:33:15.363Z,-0.07
2023-01-18T08:35:48.464Z,-0.12
2023-01-18T08:38:17.500Z,-0.14
2023-01-18T08:40:45.598Z,-0.18
2023-01-18T08:43:13.828Z,-0.17
2023-01-18T08:45:41.917Z,-0.13
2023-01-18T08:48:12.008Z,-0.16
2023-01-18T08:50:43.040Z,-0.13
2023-01-18T08:53:09.709Z,-0.10
2023-01-18T08:55:38.845Z,-0.09
2023-01-18T08:58:05.500Z,-0.03
2023-01-18T09:00:32.551Z,-0.04
2023-01-18T09:03:03.165Z,-0.01
2023-01-18T09:05:30.333Z,0.08
2023-01-18T09:07:58.196Z,0.05
2023-01-18T09:10:25.124Z,0.10
2023-01-18T09:12:53.661Z,0.13
2023-01-18T09:15:20.789Z,0.21
2023-01-18T09:17:47.518Z,0.24
2023-01-18T09:20:14.586Z,0.25
2023-01-18T09:22:42.904Z,0.32
2023-01-18T09:25:10.579Z,0.35
2023-01-18T09:27:37.586Z,0.41
2023-01-18T09:30:06.715Z,0.47
2023-01-18T09:32:33.325Z,0.56
2023-01-18T09:34:59.986Z,0.61
2023-01-18T09:37:26.654Z,0.68
2023-01-18T09:39:53.304Z,0.77
2023-01-18T09:42:22.810Z,0.84
2023-01-18T09:44:56.157Z,0.91
2023-01-18T09:47:31.019Z,1.03
2023-01-18T09:50:16.376Z,1.06
2023-01-18T09:53:20.111Z,1.11
2023-01-18T09:55:57.142Z,1.15
2023-01-18T09:58:42.954Z,1.14
2023-01-18T10:01:17.309Z,1.14
2023-01-18T10:04:00.933Z,1.26
2023-01-18T10:06:32.676Z,1.24
2023-01-18T10:09:15.787Z,1.37
2023-01-18T10:12:02.974Z,1.38
2023-01-18T10:14:43.733Z,1.44
2023-01-18T10:17:36.423Z,1.46
2023-01-18T10:20:16.435Z,1.49
2023-01-18T10:22:54.836Z,1.56
2023-01-18T10:25:32.741Z,1.64
2023-01-18T10:28:18.153Z,1.77
2023-01-18T10:30:44.847Z,1.77
2023-01-18T10:33:20.364Z,1.90
2023-01-18T10:35:57.114Z,1.97
2023-01-18T10:38:27.481Z,2.04
2023-01-18T10:41:01.936Z,2.11
2023-01-18T10:43:30.597Z,2.15
2023-01-18T10:45:58.138Z,2.15
2023-01-18T10:48:31.894Z,2.25
2023-01-18T10:51:05.917Z,2.34
2023-01-18T10:53:34.284Z,2.27
2023-01-18T10:56:05.796Z,2.25
2023-01-18T10:59:01.813Z,2.20
2023-01-18T11:01:35.318Z,2.15
2023-01-18T11:04:22.850Z,2.16
2023-01-18T11:06:59.041Z,2.23
2023-01-18T11:09:34.816Z,2.26
2023-01-18T11:12:34.979Z,2.23
2023-01-18T11:15:13.927Z,2.24
2023-01-18T11:17:50.657Z,2.27
2023-01-18T11:20:20.031Z,2.14
2023-01-18T11:22:58.735Z,2.17
2023-01-18T11:25:27.502Z,2.16
2023-01-18T11:28:02.282Z,2.21
2023-01-18T11:30:29.150Z,2.19
2023-01-18T11:33:00.039Z,2.17
2023-01-18T11:35:37.324Z,2.13
2023-01-18T11:38:08.740Z,2.18
2023-01-18T11:40:35.667Z,2.20
2023-01-18T11:43:25.207Z,2.29
2023-01-18T11:45:59.656Z,2.39
2023-01-18T11:48:35.911Z,2.46
2023-01-18T11:51:19.857Z,2.57
2023-01-18T11:54:22.786Z,2.61
2023-01-18T11:56:51.854Z,2.63
2023-01-18T11:59:35.211Z,2.64
2023-01-18T12:02:27.136Z,2.73
2023-01-18T12:05:15.565Z,2.77
2023-01-18T12:08:19.685Z,2.74
2023-01-18T12:11:07.678Z,2.74
2023-01-18T12:14:01.103Z,2.82
2023-01-18T12:17:02.833Z,2.89
2023-01-18T12:19:38.461Z,2.97
2023-01-18T12:22:23.159Z,2.97
2023-01-18T12:25:27.924Z,3.08
2023-01-18T12:28:33.136Z,3.15
2023-01-18T12:31:08.964Z,3.17
2023-01-18T12:33:46.935Z,3.21
2023-01-18T12:36:37.178Z,3.27
2023-01-18T12:39:38.417Z,3.30
2023-01-18T12:42:08.544Z,3.32
2023-01-18T12:45:02.263Z,3.39
2023-01-18T12:47:35.461Z,3.40
2023-01-18T12:50:27.389Z,3.46
2023-01-18T12:52:59.758Z,3.51
2023-01-18T12:55:31.697Z,3.51
2023-01-18T12:58:00.902Z,3.60
2023-01-18T13:00:37.653Z,3.63
2023-01-18T13:03:19.915Z,3.73
2023-01-18T13:06:00.341Z,3.78
2023-01-18T13:08:53.868Z,3.88
2023-01-18T13:11:35.563Z,3.94
2023-01-18T13:14:21.246Z,4.02
2023-01-18T13:17:02.989Z,4.08
2023-01-18T13:19:39.917Z,4.11
2023-01-18T13:22:06.526Z,4.27
2023-01-18T13:25:08.830Z,4.37
2023-01-18T13:27:37.791Z,4.40
2023-01-18T13:30:15.942Z,4.41
2023-01-18T13:32:45.068Z,4.44
2023-01-18T13:35:21.369Z,4.46
2023-01-18T13:37:55.823Z,4.35
2023-01-18T13:40:25.620Z,4.40
2023-01-18T13:42:52.580Z,4.41
2023-01-18T13:45:27.056Z,4.45
2023-01-18T13:48:06.989Z,4.39
2023-01-18T13:50:39.414Z,4.33
2023-01-18T13:53:15.210Z,4.29
2023-01-18T13:55:47.176Z,4.25
2023-01-18T13:58:34.529Z,4.18
2023-01-18T14:01:05.909Z,4.28
2023-01-18T14:03:44.910Z,4.27
2023-01-18T14:06:20.377Z,4.23
2023-01-18T14:08:56.423Z,4.18
2023-01-18T14:11:28.282Z,4.14
2023-01-18T14:13:54.828Z,4.21
2023-01-18T14:16:24.287Z,4.12
2023-01-18T14:19:17.108Z,4.11
2023-01-18T14:21:59.558Z,4.15
2023-01-18T14:24:41.366Z,4.08
2023-01-18T14:27:15.041Z,4.01
2023-01-18T14:29:41.608Z,4.01
2023-01-18T14:32:15.374Z,4.04
2023-01-18T14:34:42.287Z,3.99
2023-01-18T14:37:28.777Z,4.00
2023-01-18T14:40:16.827Z,4.01
2023-01-18T14:42:51.776Z,3.94
2023-01-18T14:45:35.462Z,3.98
2023-01-18T14:48:17.360Z,3.93
2023-01-18T14:50:47.082Z,3.84
2023-01-18T14:53:23.722Z,3.92
2023-01-18T14:56:06.026Z,3.92
2023-01-18T14:59:00.132Z,3.89
2023-01-18T15:01:31.873Z,3.89
2023-01-18T15:04:01.222Z,3.86
2023-01-18T15:06:49.493Z,3.87
2023-01-18T15:09:19.460Z,3.80
2023-01-18T15:11:47.950Z,3.78
2023-01-18T15:14:22.333Z,3.77
2023-01-18T15:16:52.993Z,3.71
2023-01-18T15:19:23.999Z,3.63
2023-01-18T15:21:50.957Z,3.62
2023-01-18T15:24:20.279Z,3.65
2023-01-18T15:26:50.550Z,3.63
2023-01-18T15:29:23.879Z,3.52
2023-01-18T15:32:04.655Z,3.42
2023-01-18T15:34:37.372Z,3.35
2023-01-18T15:37:07.082Z,3.30
2023-01-18T15:39:33.983Z,3.35
2023-01-18T15:42:08.901Z,3.25
2023-01-18T15:44:48.061Z,3.27
2023-01-18T15:47:27.346Z,3.26
2023-01-18T15:49:59.677Z,3.22
2023-01-18T15:52:35.037Z,3.16
2023-01-18T15:55:06.841Z,3.11
2023-01-18T15:57:36.583Z,3.14
2023-01-18T16:00:05.987Z,3.10
2023-01-18T16:02:33.038Z,3.12
2023-01-18T16:05:21.587Z,3.17
2023-01-18T16:07:50.271Z,3.13
2023-01-18T16:10:18.129Z,3.08
2023-01-18T16:12:45.650Z,2.99
2023-01-18T16:15:28.137Z,2.95
2023-01-18T16:18:02.345Z,2.89
2023-01-18T16:20:32.026Z,2.91
2023-01-18T16:23:09.005Z,2.84
2023-01-18T16:25:37.523Z,2.80
2023-01-18T16:28:05.103Z,2.80
2023-01-18T16:30:36.650Z,2.76
2023-01-18T16:33:09.535Z,2.74
2023-01-18T16:35:39.738Z,2.79
2023-01-18T16:38:14.727Z,2.81
2023-01-18T16:40:44.180Z,2.89
2023-01-18T16:43:27.104Z,2.87
2023-01-18T16:45:56.268Z,2.90
2023-01-18T16:48:25.036Z,2.83
2023-01-18T16:50:52.690Z,2.74
2023-01-18T16:53:19.938Z,2.70
2023-01-18T16:55:48.391Z,2.68
2023-01-18T16:58:16.473Z,2.71
2023-01-18T17:01:04.102Z,2.63
2023-01-18T17:03:32.056Z,2.57
2023-01-18T17:05:59.152Z,2.63
2023-01-18T17:08:26.155Z,2.56
2023-01-18T17:10:54.744Z,2.63
2023-01-18T17:13:22.270Z,2.53
2023-01-18T17:15:49.132Z,2.60
2023-01-18T17:18:25.764Z,2.57
2023-01-18T17:20:53.435Z,2.48
2023-01-18T17:23:21.050Z,2.40
2023-01-18T17:25:48.356Z,2.45
2023-01-18T17:28:18.073Z,2.31
2023-01-18T17:30:49.027Z,2.27
2023-01-18T17:33:22.340Z,2.27
2023-01-18T17:35:50.781Z,2.28
2023-01-18T17:38:24.256Z,2.28
2023-01-18T17:40:52.114Z,2.18
2023-01-18T17:43:31.971Z,2.16
2023-01-18T17:46:01.924Z,2.02
2023-01-18T17:48:28.849Z,2.01
2023-01-18T17:50:55.563Z,1.94
2023-01-18T17:53:22.203Z,1.96
2023-01-18T17:55:48.818Z,1.94
2023-01-18T17:58:15.432Z,1.88
2023-01-18T18:00:42.128Z,1.96
2023-01-18T18:03:09.251Z,2.01
2023-01-18T18:05:36.159Z,1.96
2023-01-18T18:08:02.775Z,1.98
2023-01-18T18:10:29.487Z,1.93
2023-01-18T18:13:00.123Z,1.88
2023-01-18T18:15:27.473Z,1.81
2023-01-18T18:17:54.229Z,1.84
2023-01-18T18:20:22.750Z,1.84
2023-01-18T18:22:50.204Z,1.82
2023-01-18T18:25:16.913Z,1.82
2023-01-18T18:27:46.750Z,1.82
2023-01-18T18:30:15.518Z,1.80
2023-01-18T18:32:42.261Z,1.74
2023-01-18T18:35:24.221Z,1.75
2023-01-18T18:37:52.278Z,1.70
2023-01-18T18:40:19.335Z,1.68
2023-01-18T18:42:56.424Z,1.64
2023-01-18T18:45:27.956Z,1.62
2023-01-18T18:47:54.903Z,1.57
2023-01-18T18:50:22.480Z,1.60
2023-01-18T18:52:49.208Z,1.56
2023-01-18T18:55:17.282Z,1.64
2023-01-18T18:57:43.940Z,1.60
2023-01-18T19:00:11.184Z,1.62
2023-01-18T19:02:38.034Z,1.64
2023-01-18T19:05:05.526Z,1.62
2023-01-18T19:07:34.555Z,1.52
2023-01-18T19:10:01.871Z,1.61
2023-01-18T19:12:32.183Z,1.60
2023-01-18T19:14:59.538Z,1.56
2023-01-18T19:17:30.806Z,1.50
2023-01-18T19:19:58.298Z,1.52
2023-01-18T19:22:25.103Z,1.55
2023-01-18T19:24:51.852Z,1.49
2023-01-18T19:27:18.529Z,1.53
2023-01-18T19:29:45.169Z,1.61
2023-01-18T19:32:11.788Z,1.63
2023-01-18T19:34:38.656Z,1.52
2023-01-18T19:37:05.464Z,1.47
2023-01-18T19:39:34.872Z,1.58
2023-01-18T19:42:02.430Z,1.55
2023-01-18T19:44:30.537Z,1.56
2023-01-18T19:46:57.799Z,1.61
2023-01-18T19:49:26.470Z,1.49
2023-01-18T19:51:54.505Z,1.43
2023-01-18T19:54:22.283Z,1.42
2023-01-18T19:56:51.440Z,1.48
2023-01-18T19:59:18.326Z,1.50
2023-01-18T20:01:45.404Z,1.50
2023-01-18T20:04:13.584Z,1.39
2023-01-18T20:06:43.491Z,1.40
2023-01-18T20:09:19.650Z,1.49
2023-01-18T20:11:48.273Z,1.46
2023-01-18T20:14:15.232Z,1.47
2023-01-18T20:16:43.886Z,1.42
2023-01-18T20:19:13.823Z,1.37
2023-01-18T20:21:40.681Z,1.28
2023-01-18T20:24:13.270Z,1.32
2023-01-18T20:26:41.749Z,1.34
2023-01-18T20:29:09.751Z,1.35
2023-01-18T20:31:37.884Z,1.32
2023-01-18T20:34:05.462Z,1.32
2023-01-18T20:36:34.954Z,1.29
2023-01-18T20:39:02.613Z,1.32
2023-01-18T20:41:29.693Z,1.38
2023-01-18T20:43:56.906Z,1.23
2023-01-18T20:46:23.518Z,1.26
2023-01-18T20:48:50.361Z,1.28
2023-01-18T20:51:18.011Z,1.19
2023-01-18T20:53:44.844Z,1.21
2023-01-18T20:56:27.924Z,1.17
2023-01-18T20:58:56.482Z,1.18
2023-01-18T21:01:23.413Z,1.05
2023-01-18T21:03:55.274Z,0.91
2023-01-18T21:06:22.170Z,0.92
2023-01-18T21:08:55.145Z,0.89
2023-01-18T21:11:28.168Z,0.85
2023-01-18T21:13:59.232Z,0.77
2023-01-18T21:16:27.675Z,0.74
2023-01-18T21:18:56.278Z,0.73
2023-01-18T21:21:24.163Z,0.70
2023-01-18T21:23:51.701Z,0.69
2023-01-18T21:26:19.211Z,0.75
2023-01-18T21:28:46.431Z,0.74
2023-01-18T21:31:13.548Z,0.74
2023-01-18T21:33:40.437Z,0.71
2023-01-18T21:36:11.954Z,0.70
2023-01-18T21:38:39.071Z,0.65
2023-01-18T21:41:25.100Z,0.61
2023-01-18T21:44:12.509Z,0.67
2023-01-18T21:46:44.979Z,0.70
2023-01-18T21:49:47.072Z,0.68
2023-01-18T21:52:37.467Z,0.73
2023-01-18T21:55:04.597Z,0.67
2023-01-18T21:57:31.333Z,0.67
2023-01-18T21:59:58.120Z,0.61
2023-01-18T22:02:25.076Z,0.66
2023-01-18T22:04:59.231Z,0.66
2023-01-18T22:07:28.129Z,0.67
2023-01-18T22:10:03.847Z,0.64
2023-01-18T22:12:32.852Z,0.64
2023-01-18T22:15:02.058Z,0.60
2023-01-18T22:17:29.091Z,0.59
2023-01-18T22:19:55.711Z,0.53
2023-01-18T22:22:22.732Z,0.54
2023-01-18T22:24:49.549Z,0.53
2023-01-18T22:27:16.220Z,0.53
2023-01-18T22:29:42.870Z,0.49
2023-01-18T22:32:09.556Z,0.42
2023-01-18T22:34:36.709Z,0.37
2023-01-18T22:37:03.569Z,0.38
2023-01-18T22:39:30.233Z,0.28
2023-01-18T22:41:56.866Z,0.36
2023-01-18T22:44:23.987Z,0.37
2023-01-18T22:46:50.660Z,0.39
2023-01-18T22:49:17.333Z,0.33
2023-01-18T22:51:46.904Z,0.31
2023-01-18T22:54:13.923Z,0.26
2023-01-18T22:56:40.579Z,0.25
2023-01-18T22:59:08.109Z,0.19
2023-01-18T23:01:35.265Z,0.26
2023-01-18T23:04:03.882Z,0.24
2023-01-18T23:06:42.216Z,0.26
2023-01-18T23:09:10.789Z,0.25
2023-01-18T23:11:38.723Z,0.20
2023-01-18T23:14:24.092Z,0.21
2023-01-18T23:17:09.859Z,0.21
2023-01-18T23:19:36.829Z,0.19
2023-01-18T23:22:07.153Z,0.24
2023-01-18T23:24:36.082Z,0.23
2023-01-18T23:27:04.626Z,0.23
2023-01-18T23:29:31.280Z,0.19
2023-01-18T23:31:58.430Z,0.20
2023-01-18T23:34:25.752Z,0.20
2023-01-18T23:36:52.716Z,0.10
2023-01-18T23:39:37.914Z,0.14
2023-01-18T23:42:23.527Z,0.12
2023-01-18T23:45:08.847Z,0.10
2023-01-18T23:47:54.946Z,0.10
2023-01-18T23:50:40.823Z,0.13
2023-01-18T23:53:30.568Z,0.12
2023-01-18T23:55:57.940Z,0.14
2023-01-18T23:58:24.854Z,0.19
